Time;durP1;ratioP1;P1;durP2;ratioP2;P2;SDS_P1;SDS_P2;PMS_P1;PMS_P2;Temp;Humidity;BMP_temperature;BMP_pressure;BME280_temperature;BME280_humidity;BME280_pressure;Samples;Min_cycle;Max_cycle;Signal;HPM_P1;HPM_P2
2021/06/10 00:00:06;;;;;;;;;;;22.30;52.00;;;;;;499941;238;942;-76
2021/06/10 00:02:07;;;;;;;;;;;22.30;51.80;;;;;;500013;238;1104;-77
2021/06/10 00:04:08;;;;;;;;;;;22.30;51.90;;;;;;499949;238;942;-77
2021/06/10 00:06:09;;;;;;;;;;;22.30;51.90;;;;;;499972;238;948;-76
2021/06/10 00:08:11;;;;;;;;;;;22.40;51.90;;;;;;499928;238;1049;-76
2021/06/10 00:10:12;;;;;;;;;;;22.30;51.90;;;;;;499944;238;1154;-76
2021/06/10 00:12:13;;;;;;;;;;;22.40;51.90;;;;;;499867;238;1125;-76
2021/06/10 00:14:14;;;;;;;;;;;22.40;51.80;;;;;;499849;238;1034;-76
2021/06/10 00:16:16;;;;;;;;;;;22.40;51.70;;;;;;499855;238;2180;-76
2021/06/10 00:18:17;;;;;;;;;;;22.40;51.80;;;;;;500084;238;1359;-76
2021/06/10 00:20:18;;;;;;;;;;;22.40;51.90;;;;;;499902;238;1083;-76
2021/06/10 00:22:20;;;;;;;;;;;22.40;51.70;;;;;;499945;238;1160;-76
2021/06/10 00:24:21;;;;;;;;;;;22.50;51.60;;;;;;499845;238;957;-77
2021/06/10 00:26:22;;;;;;;;;;;22.50;51.60;;;;;;499883;238;1197;-76
2021/06/10 00:28:23;;;;;;;;;;;22.50;51.60;;;;;;499884;238;1100;-76
2021/06/10 00:30:25;;;;;;;;;;;22.40;51.50;;;;;;499875;238;935;-76
2021/06/10 00:32:26;;;;;;;;;;;22.40;51.70;;;;;;499931;238;1003;-77
2021/06/10 00:34:27;;;;;;;;;;;22.30;51.90;;;;;;499955;238;992;-77
2021/06/10 00:36:29;;;;;;;;;;;22.10;52.30;;;;;;499952;238;2188;-76
2021/06/10 00:38:30;;;;;;;;;;;22.00;52.60;;;;;;499974;238;1026;-76
2021/06/10 00:40:31;;;;;;;;;;;21.80;52.90;;;;;;499896;238;1143;-76
2021/06/10 00:42:32;;;;;;;;;;;21.80;53.20;;;;;;499961;238;1092;-76
2021/06/10 00:44:34;;;;;;;;;;;21.70;53.20;;;;;;499916;238;1016;-76
2021/06/10 00:46:35;;;;;;;;;;;21.70;53.30;;;;;;499928;238;1188;-76
2021/06/10 00:48:37;;;;;;;;;;;21.70;53.20;;;;;;500037;238;966;-76
2021/06/10 00:50:38;;;;;;;;;;;21.70;53.20;;;;;;499939;238;973;-76
2021/06/10 00:52:39;;;;;;;;;;;21.70;53.40;;;;;;499922;238;1039;-76
2021/06/10 00:54:40;;;;;;;;;;;21.80;53.30;;;;;;499942;238;969;-76
2021/06/10 00:56:42;;;;;;;;;;;21.80;53.20;;;;;;499951;238;2153;-76
2021/06/10 00:58:43;;;;;;;;;;;21.80;53.20;;;;;;499994;238;1032;-76
2021/06/10 01:00:44;;;;;;;;;;;21.80;53.10;;;;;;499906;238;939;-76
2021/06/10 01:02:46;;;;;;;;;;;21.80;53.20;;;;;;499875;238;933;-76
2021/06/10 01:04:47;;;;;;;;;;;21.80;53.10;;;;;;499902;238;962;-76
2021/06/10 01:06:51;;;;;;;;;;;21.70;53.20;;;;;;499866;238;960;-76
2021/06/10 01:08:49;;;;;;;;;;;21.70;53.20;;;;;;499914;238;1417;-76
2021/06/10 01:10:51;;;;;;;;;;;21.70;53.40;;;;;;499893;238;1109;-76
2021/06/10 01:12:52;;;;;;;;;;;21.80;53.30;;;;;;499954;238;1388;-76
2021/06/10 01:14:53;;;;;;;;;;;21.70;53.30;;;;;;499926;238;912;-76
2021/06/10 01:16:55;;;;;;;;;;;21.70;53.20;;;;;;499928;238;2188;-76
2021/06/10 01:18:56;;;;;;;;;;;21.70;53.20;;;;;;499880;238;958;-76
2021/06/10 01:20:57;;;;;;;;;;;21.70;53.20;;;;;;499745;238;1057;-76
2021/06/10 01:22:58;;;;;;;;;;;21.80;53.10;;;;;;499884;238;1055;-76
2021/06/10 01:25:01;;;;;;;;;;;21.80;52.90;;;;;;499930;238;1032;-76
2021/06/10 01:27:03;;;;;;;;;;;21.80;53.10;;;;;;499858;238;1150;-76
2021/06/10 01:29:04;;;;;;;;;;;21.70;53.30;;;;;;499952;238;1106;-76
2021/06/10 01:31:06;;;;;;;;;;;21.60;53.50;;;;;;499852;238;1161;-76
2021/06/10 01:33:07;;;;;;;;;;;21.60;53.40;;;;;;499920;238;1383;-76
2021/06/10 01:35:08;;;;;;;;;;;21.70;53.40;;;;;;499826;238;1070;-76
2021/06/10 01:37:09;;;;;;;;;;;21.70;53.50;;;;;;499837;238;2133;-76
2021/06/10 01:39:11;;;;;;;;;;;21.70;53.30;;;;;;499921;238;1007;-76
2021/06/10 01:41:12;;;;;;;;;;;21.70;53.20;;;;;;499807;238;1211;-76
2021/06/10 01:43:13;;;;;;;;;;;21.80;53.00;;;;;;499892;238;1173;-76
2021/06/10 01:45:15;;;;;;;;;;;21.80;53.10;;;;;;499910;238;940;-76
2021/06/10 01:47:16;;;;;;;;;;;21.70;53.20;;;;;;499926;238;1137;-76
2021/06/10 01:49:17;;;;;;;;;;;21.70;53.20;;;;;;499969;238;940;-76
2021/06/10 01:51:18;;;;;;;;;;;21.70;53.30;;;;;;499947;238;1178;-76
2021/06/10 01:53:20;;;;;;;;;;;21.80;53.10;;;;;;499920;238;1050;-76
2021/06/10 01:55:21;;;;;;;;;;;21.70;53.00;;;;;;499891;238;1007;-76
2021/06/10 01:57:22;;;;;;;;;;;21.80;53.10;;;;;;499910;238;2124;-76
2021/06/10 01:59:23;;;;;;;;;;;21.80;53.00;;;;;;499977;238;1114;-76
2021/06/10 02:01:25;;;;;;;;;;;21.80;53.10;;;;;;499856;238;1225;-76
2021/06/10 02:03:26;;;;;;;;;;;21.80;53.10;;;;;;499940;238;1173;-76
2021/06/10 02:05:28;;;;;;;;;;;21.70;53.10;;;;;;499981;238;904;-76
2021/06/10 02:07:29;;;;;;;;;;;21.70;53.20;;;;;;499965;238;1097;-76
2021/06/10 02:09:30;;;;;;;;;;;21.70;53.10;;;;;;499993;238;971;-76
2021/06/10 02:11:32;;;;;;;;;;;21.70;53.10;;;;;;499897;234;1283;-76
2021/06/10 02:13:33;;;;;;;;;;;21.70;53.10;;;;;;500105;238;1134;-76
2021/06/10 02:15:34;;;;;;;;;;;21.70;53.20;;;;;;499912;238;1051;-76
2021/06/10 02:17:35;;;;;;;;;;;21.80;53.00;;;;;;499853;238;2181;-76
2021/06/10 02:19:37;;;;;;;;;;;21.80;53.00;;;;;;499975;238;1120;-76
2021/06/10 02:21:38;;;;;;;;;;;21.70;53.00;;;;;;499785;238;1222;-76
2021/06/10 02:23:39;;;;;;;;;;;21.80;53.10;;;;;;499943;238;964;-76
2021/06/10 02:25:41;;;;;;;;;;;21.80;53.00;;;;;;499927;238;1000;-76
2021/06/10 02:27:42;;;;;;;;;;;21.70;53.00;;;;;;499986;238;1122;-76
2021/06/10 02:29:43;;;;;;;;;;;21.70;53.10;;;;;;499988;238;990;-76
2021/06/10 02:31:45;;;;;;;;;;;21.70;53.10;;;;;;499856;238;1179;-76
2021/06/10 02:33:46;;;;;;;;;;;21.70;53.20;;;;;;499976;238;1052;-76
2021/06/10 02:35:47;;;;;;;;;;;21.60;53.20;;;;;;499926;238;1237;-76
2021/06/10 02:37:48;;;;;;;;;;;21.60;53.30;;;;;;499880;238;2188;-76
2021/06/10 02:39:50;;;;;;;;;;;21.60;53.30;;;;;;499967;238;976;-76
2021/06/10 02:41:51;;;;;;;;;;;21.60;53.40;;;;;;499809;238;1097;-76
2021/06/10 02:43:52;;;;;;;;;;;21.70;53.30;;;;;;500042;238;1196;-76
2021/06/10 02:45:54;;;;;;;;;;;21.70;53.20;;;;;;499843;238;1020;-76
2021/06/10 02:47:55;;;;;;;;;;;21.80;53.00;;;;;;499888;238;928;-76
2021/06/10 02:49:56;;;;;;;;;;;21.80;52.90;;;;;;499928;238;965;-76
2021/06/10 02:51:57;;;;;;;;;;;21.70;53.10;;;;;;499832;238;1156;-76
2021/06/10 02:53:59;;;;;;;;;;;21.70;53.00;;;;;;499969;238;975;-76
2021/06/10 02:56:00;;;;;;;;;;;21.70;53.00;;;;;;499992;238;1129;-76
2021/06/10 02:58:01;;;;;;;;;;;21.80;53.00;;;;;;499961;238;2204;-76
2021/06/10 03:00:03;;;;;;;;;;;21.80;52.90;;;;;;499991;238;954;-77
2021/06/10 03:02:04;;;;;;;;;;;21.70;52.90;;;;;;499916;238;1091;-76
2021/06/10 03:04:05;;;;;;;;;;;21.80;52.90;;;;;;499980;238;952;-76
2021/06/10 03:06:06;;;;;;;;;;;21.80;52.90;;;;;;499897;238;1174;-76
2021/06/10 03:08:08;;;;;;;;;;;21.80;52.90;;;;;;499944;238;1055;-76
2021/06/10 03:10:09;;;;;;;;;;;21.70;52.90;;;;;;500048;238;1059;-76
2021/06/10 03:12:10;;;;;;;;;;;21.80;52.90;;;;;;499933;238;1224;-76
2021/06/10 03:14:12;;;;;;;;;;;21.80;52.80;;;;;;499990;238;1176;-76
2021/06/10 03:16:13;;;;;;;;;;;21.80;52.80;;;;;;499901;238;1226;-76
2021/06/10 03:18:14;;;;;;;;;;;21.70;52.90;;;;;;499968;238;2132;-76
2021/06/10 03:20:15;;;;;;;;;;;21.70;53.10;;;;;;499973;238;969;-76
2021/06/10 03:22:17;;;;;;;;;;;21.50;53.40;;;;;;499876;238;984;-76
2021/06/10 03:24:18;;;;;;;;;;;21.50;53.50;;;;;;499956;238;1225;-76
2021/06/10 03:26:19;;;;;;;;;;;21.50;53.60;;;;;;499917;238;1101;-76
2021/06/10 03:28:21;;;;;;;;;;;21.50;53.70;;;;;;500006;234;1316;-76
2021/06/10 03:30:22;;;;;;;;;;;21.30;53.80;;;;;;499977;238;1254;-76
2021/06/10 03:32:23;;;;;;;;;;;21.40;53.90;;;;;;499908;238;961;-76
2021/06/10 03:34:24;;;;;;;;;;;21.40;54.00;;;;;;499921;238;953;-76
2021/06/10 03:36:26;;;;;;;;;;;21.30;54.00;;;;;;499946;238;1122;-76
2021/06/10 03:38:27;;;;;;;;;;;21.30;54.10;;;;;;499986;238;2124;-76
2021/06/10 03:40:28;;;;;;;;;;;21.30;54.10;;;;;;499998;238;1297;-76
2021/06/10 03:42:30;;;;;;;;;;;21.40;54.10;;;;;;499921;238;1042;-76
2021/06/10 03:44:31;;;;;;;;;;;21.40;54.00;;;;;;499924;238;1204;-76
2021/06/10 03:46:32;;;;;;;;;;;21.40;53.90;;;;;;499858;238;1111;-76
2021/06/10 03:48:34;;;;;;;;;;;21.40;53.80;;;;;;500011;238;1098;-76
2021/06/10 03:50:36;;;;;;;;;;;21.40;53.80;;;;;;499996;238;956;-76
2021/06/10 03:52:37;;;;;;;;;;;21.40;54.00;;;;;;499932;238;1368;-76
2021/06/10 03:54:38;;;;;;;;;;;21.40;54.00;;;;;;499916;238;1023;-76
2021/06/10 03:56:40;;;;;;;;;;;21.40;54.00;;;;;;499804;235;1302;-76
2021/06/10 03:58:41;;;;;;;;;;;21.40;53.90;;;;;;499926;238;2128;-76
2021/06/10 04:00:42;;;;;;;;;;;21.40;54.00;;;;;;499927;238;1185;-76
2021/06/10 04:02:44;;;;;;;;;;;21.40;54.00;;;;;;499999;238;1012;-76
2021/06/10 04:04:45;;;;;;;;;;;21.30;54.00;;;;;;499952;238;1117;-76
2021/06/10 04:06:46;;;;;;;;;;;21.40;54.00;;;;;;499944;238;1237;-76
2021/06/10 04:08:47;;;;;;;;;;;21.40;53.90;;;;;;499885;238;956;-76
2021/06/10 04:10:49;;;;;;;;;;;21.30;54.00;;;;;;499828;238;1205;-76
2021/06/10 04:12:50;;;;;;;;;;;21.30;54.10;;;;;;499769;238;952;-76
2021/06/10 04:14:51;;;;;;;;;;;21.40;54.00;;;;;;499905;238;1182;-76
2021/06/10 04:16:53;;;;;;;;;;;21.30;54.00;;;;;;499898;238;1174;-76
2021/06/10 04:18:54;;;;;;;;;;;21.40;54.00;;;;;;499883;238;2129;-76
2021/06/10 04:20:55;;;;;;;;;;;21.30;53.90;;;;;;499881;238;1212;-76
2021/06/10 04:22:56;;;;;;;;;;;21.30;54.00;;;;;;499827;238;972;-76
2021/06/10 04:24:58;;;;;;;;;;;21.40;54.10;;;;;;499874;238;951;-76
2021/06/10 04:27:00;;;;;;;;;;;21.30;54.00;;;;;;499763;238;1292;-76
2021/06/10 04:29:00;;;;;;;;;;;21.30;54.10;;;;;;499934;238;1343;-76
2021/06/10 04:31:01;;;;;;;;;;;21.30;54.20;;;;;;499802;238;1216;-76
2021/06/10 04:33:03;;;;;;;;;;;21.30;54.20;;;;;;499748;238;987;-76
2021/06/10 04:35:04;;;;;;;;;;;21.20;54.30;;;;;;499806;238;1153;-76
2021/06/10 04:37:05;;;;;;;;;;;21.20;54.30;;;;;;499747;238;1110;-76
2021/06/10 04:39:07;;;;;;;;;;;21.20;54.30;;;;;;499698;238;2116;-76
2021/06/10 04:41:08;;;;;;;;;;;21.20;54.40;;;;;;499611;234;1293;-76
2021/06/10 04:43:09;;;;;;;;;;;21.20;54.40;;;;;;499615;238;1079;-77
2021/06/10 04:45:10;;;;;;;;;;;21.20;54.30;;;;;;499663;238;1552;-76
2021/06/10 04:47:12;;;;;;;;;;;21.20;54.30;;;;;;499559;238;1161;-76
2021/06/10 04:49:13;;;;;;;;;;;21.20;54.30;;;;;;499731;238;1097;-76
2021/06/10 04:51:14;;;;;;;;;;;21.20;54.40;;;;;;499692;238;963;-76
2021/06/10 04:53:16;;;;;;;;;;;21.20;54.50;;;;;;499665;238;1166;-76
2021/06/10 04:55:17;;;;;;;;;;;21.20;54.30;;;;;;499727;238;1206;-76
2021/06/10 04:57:18;;;;;;;;;;;21.20;54.30;;;;;;499761;238;1158;-76
2021/06/10 04:59:19;;;;;;;;;;;21.20;54.30;;;;;;499625;238;2101;-76
2021/06/10 05:01:23;;;;;;;;;;;21.20;54.30;;;;;;499554;238;1281;-76
2021/06/10 05:03:23;;;;;;;;;;;21.20;54.30;;;;;;499530;238;1353;-76
2021/06/10 05:05:23;;;;;;;;;;;21.20;54.30;;;;;;499571;238;1432;-76
2021/06/10 05:07:24;;;;;;;;;;;21.30;54.30;;;;;;499531;238;1219;-76
2021/06/10 05:09:26;;;;;;;;;;;21.20;54.20;;;;;;499778;238;926;-76
2021/06/10 05:11:27;;;;;;;;;;;21.20;54.30;;;;;;499679;238;1143;-76
2021/06/10 05:13:28;;;;;;;;;;;21.30;54.30;;;;;;499664;238;948;-77
2021/06/10 05:15:30;;;;;;;;;;;21.30;54.30;;;;;;499829;238;1067;-76
2021/06/10 05:17:31;;;;;;;;;;;21.30;54.30;;;;;;499696;238;2171;-76
2021/06/10 05:19:32;;;;;;;;;;;21.30;54.30;;;;;;499681;238;987;-76
2021/06/10 05:21:33;;;;;;;;;;;21.30;54.30;;;;;;499642;238;999;-76
2021/06/10 05:23:36;;;;;;;;;;;21.20;54.40;;;;;;499602;238;1001;-77
2021/06/10 05:25:36;;;;;;;;;;;21.20;54.30;;;;;;499759;238;1334;-76
2021/06/10 05:27:38;;;;;;;;;;;21.20;54.30;;;;;;499625;238;1111;-77
2021/06/10 05:29:39;;;;;;;;;;;21.20;54.30;;;;;;499637;235;1312;-77
2021/06/10 05:31:40;;;;;;;;;;;21.30;54.30;;;;;;499542;238;1109;-76
2021/06/10 05:33:41;;;;;;;;;;;21.20;54.30;;;;;;499497;238;987;-77
2021/06/10 05:35:43;;;;;;;;;;;21.20;54.30;;;;;;499458;238;1155;-76
2021/06/10 05:37:44;;;;;;;;;;;21.30;54.30;;;;;;499479;238;2124;-77
2021/06/10 05:39:45;;;;;;;;;;;21.30;54.40;;;;;;499600;238;1105;-77
2021/06/10 05:41:47;;;;;;;;;;;21.20;54.30;;;;;;499575;238;976;-77
2021/06/10 05:43:48;;;;;;;;;;;21.20;54.50;;;;;;499653;238;965;-77
2021/06/10 05:45:49;;;;;;;;;;;21.20;54.50;;;;;;499425;238;1193;-76
2021/06/10 05:47:50;;;;;;;;;;;21.20;54.50;;;;;;499331;238;1019;-76
2021/06/10 05:49:52;;;;;;;;;;;21.20;54.50;;;;;;499396;238;1081;-76
2021/06/10 05:51:53;;;;;;;;;;;21.20;54.50;;;;;;499402;238;1033;-76
2021/06/10 05:53:54;;;;;;;;;;;21.30;54.50;;;;;;499332;238;976;-76
2021/06/10 05:55:56;;;;;;;;;;;21.30;54.30;;;;;;499360;238;958;-76
2021/06/10 05:57:57;;;;;;;;;;;21.30;54.40;;;;;;499354;238;2187;-76
2021/06/10 05:59:58;;;;;;;;;;;21.30;54.40;;;;;;499420;238;1296;-76
2021/06/10 06:01:59;;;;;;;;;;;21.30;54.40;;;;;;499479;238;1067;-77
2021/06/10 06:04:01;;;;;;;;;;;21.30;54.50;;;;;;499358;238;957;-77
2021/06/10 06:06:02;;;;;;;;;;;21.30;54.40;;;;;;499251;238;1203;-76
2021/06/10 06:08:03;;;;;;;;;;;21.30;54.40;;;;;;499274;238;1015;-77
2021/06/10 06:10:05;;;;;;;;;;;21.30;54.40;;;;;;499366;238;1004;-76
2021/06/10 06:12:10;;;;;;;;;;;21.30;54.50;;;;;;499262;238;1401;-76
2021/06/10 06:14:09;;;;;;;;;;;21.30;54.50;;;;;;499521;238;1480;-77
2021/06/10 06:16:09;;;;;;;;;;;21.30;54.50;;;;;;499352;238;1301;-77
2021/06/10 06:18:11;;;;;;;;;;;21.30;54.50;;;;;;499307;238;2169;-77
2021/06/10 06:20:12;;;;;;;;;;;21.30;54.50;;;;;;499312;238;1001;-77
2021/06/10 06:22:13;;;;;;;;;;;21.30;54.40;;;;;;499378;238;1220;-76
2021/06/10 06:24:15;;;;;;;;;;;21.30;54.40;;;;;;499319;238;975;-76
2021/06/10 06:26:16;;;;;;;;;;;21.40;54.50;;;;;;499396;238;1154;-76
2021/06/10 06:28:17;;;;;;;;;;;21.40;54.50;;;;;;499087;238;1055;-76
2021/06/10 06:30:19;;;;;;;;;;;21.40;54.90;;;;;;499134;238;1043;-77
2021/06/10 06:32:20;;;;;;;;;;;21.40;55.30;;;;;;499167;238;1071;-77
2021/06/10 06:34:21;;;;;;;;;;;21.40;55.70;;;;;;498927;238;992;-76
2021/06/10 06:36:22;;;;;;;;;;;21.30;56.10;;;;;;499111;238;1214;-76
2021/06/10 06:38:24;;;;;;;;;;;21.30;56.40;;;;;;499121;238;2176;-76
2021/06/10 06:40:26;;;;;;;;;;;21.20;56.60;;;;;;499273;238;1183;-77
2021/06/10 06:42:27;;;;;;;;;;;21.20;56.80;;;;;;499271;238;1009;-77
2021/06/10 06:44:28;;;;;;;;;;;21.20;57.00;;;;;;498978;238;969;-76
2021/06/10 06:46:30;;;;;;;;;;;21.20;57.10;;;;;;498959;238;1234;-76
2021/06/10 06:48:31;;;;;;;;;;;21.20;57.20;;;;;;499079;238;1015;-76
2021/06/10 06:50:32;;;;;;;;;;;21.20;57.20;;;;;;499106;238;1028;-76
2021/06/10 06:52:33;;;;;;;;;;;21.20;57.30;;;;;;499469;238;1057;-76
2021/06/10 06:54:35;;;;;;;;;;;21.10;57.40;;;;;;499336;238;1197;-76
2021/06/10 06:56:36;;;;;;;;;;;21.10;57.50;;;;;;499198;238;1398;-76
2021/06/10 06:58:38;;;;;;;;;;;21.10;57.50;;;;;;499013;238;2173;-76
2021/06/10 07:00:39;;;;;;;;;;;21.10;57.40;;;;;;499124;238;1665;-76
2021/06/10 07:02:40;;;;;;;;;;;21.10;57.20;;;;;;499252;238;1201;-76
2021/06/10 07:04:42;;;;;;;;;;;21.10;57.00;;;;;;499063;238;1028;-76
2021/06/10 07:06:43;;;;;;;;;;;21.20;57.00;;;;;;499097;238;1041;-76
2021/06/10 07:08:44;;;;;;;;;;;21.20;56.90;;;;;;499006;238;1054;-76
2021/06/10 07:10:46;;;;;;;;;;;21.20;56.70;;;;;;499004;238;1048;-76
2021/06/10 07:12:47;;;;;;;;;;;21.20;56.70;;;;;;498955;238;945;-77
2021/06/10 07:14:48;;;;;;;;;;;21.20;56.70;;;;;;499022;238;1036;-77
2021/06/10 07:16:50;;;;;;;;;;;21.20;56.70;;;;;;498960;238;1179;-76
2021/06/10 07:18:51;;;;;;;;;;;21.20;56.50;;;;;;499009;238;2125;-76
2021/06/10 07:20:52;;;;;;;;;;;21.20;56.30;;;;;;499024;238;1211;-76
2021/06/10 07:22:54;;;;;;;;;;;21.20;56.20;;;;;;499186;238;1067;-76
2021/06/10 07:24:55;;;;;;;;;;;21.20;56.20;;;;;;498849;238;1080;-76
2021/06/10 07:26:56;;;;;;;;;;;21.30;56.10;;;;;;499042;238;1082;-76
2021/06/10 07:28:58;;;;;;;;;;;21.30;56.00;;;;;;499199;238;1037;-76
2021/06/10 07:30:59;;;;;;;;;;;21.20;56.10;;;;;;499155;238;1185;-76
2021/06/10 07:33:00;;;;;;;;;;;21.20;56.00;;;;;;499091;238;1075;-76
2021/06/10 07:35:02;;;;;;;;;;;21.30;56.00;;;;;;499171;238;1040;-77
2021/06/10 07:37:03;;;;;;;;;;;21.30;56.00;;;;;;499192;238;1130;-76
2021/06/10 07:39:04;;;;;;;;;;;21.30;55.90;;;;;;499180;238;2184;-76
2021/06/10 07:41:05;;;;;;;;;;;21.30;55.90;;;;;;499058;238;993;-76
2021/06/10 07:43:07;;;;;;;;;;;21.20;55.80;;;;;;499015;238;1212;-76
2021/06/10 07:45:08;;;;;;;;;;;21.20;55.90;;;;;;499122;238;988;-76
2021/06/10 07:47:09;;;;;;;;;;;21.30;55.90;;;;;;498976;238;1290;-76
2021/06/10 07:49:11;;;;;;;;;;;21.20;55.90;;;;;;498956;238;1040;-76
2021/06/10 07:51:12;;;;;;;;;;;21.10;56.20;;;;;;498805;238;1358;-76
2021/06/10 07:53:13;;;;;;;;;;;21.10;56.30;;;;;;499010;238;1113;-76
2021/06/10 07:55:15;;;;;;;;;;;21.20;56.20;;;;;;498956;238;1044;-76
2021/06/10 07:57:16;;;;;;;;;;;21.20;56.00;;;;;;499034;238;1458;-76
2021/06/10 07:59:23;;;;;;;;;;;21.30;55.80;;;;;;499019;238;2141;-77
2021/06/10 08:01:19;;;;;;;;;;;21.30;55.70;;;;;;499123;238;1490;-76
2021/06/10 08:03:20;;;;;;;;;;;21.30;55.70;;;;;;498975;238;1066;-76
2021/06/10 08:05:22;;;;;;;;;;;21.40;55.50;;;;;;498785;238;1016;-77
2021/06/10 08:07:23;;;;;;;;;;;21.50;55.40;;;;;;499015;238;1169;-76
2021/06/10 08:09:24;;;;;;;;;;;21.60;55.20;;;;;;498894;238;1049;-76
2021/06/10 08:11:25;;;;;;;;;;;21.60;54.90;;;;;;498811;238;1293;-77
2021/06/10 08:13:27;;;;;;;;;;;21.70;54.70;;;;;;498952;238;1049;-77
2021/06/10 08:15:28;;;;;;;;;;;21.70;54.70;;;;;;499066;238;1199;-76
2021/06/10 08:17:32;;;;;;;;;;;21.70;54.80;;;;;;499028;238;1191;-77
2021/06/10 08:19:31;;;;;;;;;;;21.70;55.10;;;;;;499222;238;2183;-76
2021/06/10 08:21:33;;;;;;;;;;;21.70;55.20;;;;;;499139;238;1110;-76
2021/06/10 08:23:34;;;;;;;;;;;21.70;55.30;;;;;;499182;238;1040;-76
2021/06/10 08:25:41;;;;;;;;;;;21.60;55.40;;;;;;499104;238;1441;-76
2021/06/10 08:27:37;;;;;;;;;;;21.60;55.60;;;;;;499071;238;1411;-77
2021/06/10 08:29:38;;;;;;;;;;;21.60;55.70;;;;;;498930;238;1092;-77
2021/06/10 08:31:39;;;;;;;;;;;21.70;55.60;;;;;;499003;238;1219;-77
2021/06/10 08:33:41;;;;;;;;;;;21.60;55.60;;;;;;498990;238;1065;-76
2021/06/10 08:35:42;;;;;;;;;;;21.60;55.70;;;;;;498759;238;1219;-76
2021/06/10 08:37:43;;;;;;;;;;;21.60;55.80;;;;;;498877;238;1068;-77
2021/06/10 08:39:45;;;;;;;;;;;21.50;55.80;;;;;;498828;238;2171;-76
2021/06/10 08:41:46;;;;;;;;;;;21.50;55.90;;;;;;498820;238;1212;-76
2021/06/10 08:43:47;;;;;;;;;;;21.50;55.90;;;;;;498871;238;1035;-76
2021/06/10 08:45:49;;;;;;;;;;;21.40;56.10;;;;;;498830;238;1136;-76
2021/06/10 08:47:50;;;;;;;;;;;21.50;56.00;;;;;;499013;234;1246;-76
2021/06/10 08:49:51;;;;;;;;;;;21.50;55.90;;;;;;498870;238;1032;-76
2021/06/10 08:51:52;;;;;;;;;;;21.50;55.90;;;;;;498983;238;1056;-76
2021/06/10 08:53:56;;;;;;;;;;;21.50;56.00;;;;;;499096;238;1069;-76
2021/06/10 08:55:56;;;;;;;;;;;21.50;55.80;;;;;;499002;238;1444;-77
2021/06/10 08:57:57;;;;;;;;;;;21.40;55.80;;;;;;499322;238;1373;-76
2021/06/10 08:59:58;;;;;;;;;;;21.60;55.70;;;;;;498792;238;2168;-76
2021/06/10 09:01:59;;;;;;;;;;;21.60;55.60;;;;;;499029;238;1102;-76
2021/06/10 09:04:01;;;;;;;;;;;21.60;55.40;;;;;;498896;238;1079;-77
2021/06/10 09:06:02;;;;;;;;;;;21.70;55.30;;;;;;498766;238;1060;-76
2021/06/10 09:08:05;;;;;;;;;;;21.60;55.20;;;;;;498790;238;1170;-76
2021/06/10 09:10:04;;;;;;;;;;;21.60;55.10;;;;;;498762;238;1405;-76
2021/06/10 09:12:06;;;;;;;;;;;21.60;55.20;;;;;;499128;238;1086;-76
2021/06/10 09:14:07;;;;;;;;;;;21.70;55.10;;;;;;498676;238;1344;-77
2021/06/10 09:16:08;;;;;;;;;;;21.70;54.80;;;;;;498796;238;1041;-76
2021/06/10 09:18:10;;;;;;;;;;;21.70;54.90;;;;;;498939;238;1119;-76
2021/06/10 09:20:11;;;;;;;;;;;21.60;54.90;;;;;;498958;238;2132;-77
2021/06/10 09:22:12;;;;;;;;;;;21.70;54.70;;;;;;498963;238;1054;-76
2021/06/10 09:24:14;;;;;;;;;;;21.70;54.80;;;;;;498962;238;1081;-77
2021/06/10 09:26:15;;;;;;;;;;;21.70;54.80;;;;;;498876;238;1018;-77
2021/06/10 09:28:16;;;;;;;;;;;21.70;54.70;;;;;;498774;238;1043;-76
2021/06/10 09:30:17;;;;;;;;;;;21.70;54.60;;;;;;498951;238;1033;-77
2021/06/10 09:32:19;;;;;;;;;;;21.80;54.50;;;;;;498922;238;1273;-76
2021/06/10 09:34:20;;;;;;;;;;;21.80;54.50;;;;;;499088;238;1507;-76
2021/06/10 09:36:24;;;;;;;;;;;21.80;54.50;;;;;;499003;238;1042;-77
2021/06/10 09:38:24;;;;;;;;;;;21.80;54.70;;;;;;499021;238;1370;-77
2021/06/10 09:40:24;;;;;;;;;;;21.70;54.80;;;;;;499233;238;2133;-76
2021/06/10 09:42:25;;;;;;;;;;;21.60;54.90;;;;;;498983;238;1264;-76
2021/06/10 09:44:28;;;;;;;;;;;21.60;55.00;;;;;;498921;238;1052;-76
2021/06/10 09:46:29;;;;;;;;;;;21.60;55.20;;;;;;498897;238;1133;-77
2021/06/10 09:48:31;;;;;;;;;;;21.60;55.30;;;;;;498900;238;1179;-76
2021/06/10 09:50:32;;;;;;;;;;;21.60;55.40;;;;;;498794;238;979;-76
2021/06/10 09:52:33;;;;;;;;;;;21.50;55.30;;;;;;498902;238;1261;-76
2021/06/10 09:54:35;;;;;;;;;;;21.60;55.40;;;;;;498972;238;1021;-76
2021/06/10 09:56:36;;;;;;;;;;;21.50;55.30;;;;;;498938;234;1148;-76
2021/06/10 09:58:39;;;;;;;;;;;21.50;55.30;;;;;;498290;238;1044;-76
2021/06/10 10:00:40;;;;;;;;;;;21.60;55.40;;;;;;499486;238;2196;-76
2021/06/10 10:02:44;;;;;;;;;;;21.50;55.30;;;;;;499344;238;900;-76
2021/06/10 10:04:42;;;;;;;;;;;21.60;55.40;;;;;;499481;238;1284;-77
2021/06/10 10:06:44;;;;;;;;;;;21.70;55.10;;;;;;498935;238;1039;-76
2021/06/10 10:08:46;;;;;;;;;;;21.70;54.90;;;;;;498464;238;1156;-76
2021/06/10 10:10:47;;;;;;;;;;;21.80;54.70;;;;;;498837;238;1266;-76
2021/06/10 10:12:50;;;;;;;;;;;21.80;54.70;;;;;;499002;238;1048;-77
2021/06/10 10:14:49;;;;;;;;;;;21.80;54.50;;;;;;498877;238;1430;-77
2021/06/10 10:16:51;;;;;;;;;;;21.90;54.40;;;;;;498960;238;1018;-77
2021/06/10 10:18:53;;;;;;;;;;;21.80;54.40;;;;;;499007;238;1249;-77
2021/06/10 10:20:53;;;;;;;;;;;21.80;54.40;;;;;;498846;238;2113;-77
2021/06/10 10:22:54;;;;;;;;;;;21.90;54.40;;;;;;499216;238;1140;-77
2021/06/10 10:24:56;;;;;;;;;;;21.80;54.40;;;;;;498896;238;1041;-76
2021/06/10 10:26:57;;;;;;;;;;;21.80;54.20;;;;;;498859;238;1059;-76
2021/06/10 10:28:59;;;;;;;;;;;21.80;54.30;;;;;;498899;238;1017;-76
2021/06/10 10:31:00;;;;;;;;;;;21.80;54.20;;;;;;499001;238;1053;-76
2021/06/10 10:33:01;;;;;;;;;;;21.90;54.10;;;;;;499068;238;1091;-76
2021/06/10 10:35:02;;;;;;;;;;;21.90;54.10;;;;;;498852;238;1182;-76
2021/06/10 10:37:05;;;;;;;;;;;22.00;53.90;;;;;;498962;238;1412;-76
2021/06/10 10:39:05;;;;;;;;;;;22.00;53.90;;;;;;499082;238;1354;-76
2021/06/10 10:41:06;;;;;;;;;;;22.00;53.90;;;;;;498955;238;2175;-77
2021/06/10 10:43:07;;;;;;;;;;;22.00;53.80;;;;;;499252;238;1089;-76
2021/06/10 10:45:09;;;;;;;;;;;21.90;54.00;;;;;;498865;238;1065;-76
2021/06/10 10:47:10;;;;;;;;;;;22.00;53.90;;;;;;498894;238;1181;-76
2021/06/10 10:49:12;;;;;;;;;;;22.00;53.80;;;;;;498859;238;1245;-76
2021/06/10 10:51:13;;;;;;;;;;;21.90;53.90;;;;;;498610;238;1212;-77
2021/06/10 10:53:18;;;;;;;;;;;21.90;53.90;;;;;;499153;238;1047;-76
2021/06/10 10:55:16;;;;;;;;;;;22.00;53.80;;;;;;499168;238;1306;-77
2021/06/10 10:57:17;;;;;;;;;;;22.10;53.70;;;;;;499160;238;1079;-76
2021/06/10 10:59:19;;;;;;;;;;;22.10;53.60;;;;;;499095;238;1018;-77
2021/06/10 11:01:20;;;;;;;;;;;22.10;53.70;;;;;;499116;238;2184;-77
2021/06/10 11:03:22;;;;;;;;;;;22.10;53.70;;;;;;499293;238;1305;-76
2021/06/10 11:05:23;;;;;;;;;;;22.10;53.70;;;;;;498709;238;1125;-76
2021/06/10 11:07:24;;;;;;;;;;;22.10;53.60;;;;;;498751;238;1056;-77
2021/06/10 11:09:25;;;;;;;;;;;22.10;53.60;;;;;;498817;238;1009;-76
2021/06/10 11:11:27;;;;;;;;;;;22.00;53.50;;;;;;498850;234;1251;-76
2021/06/10 11:13:28;;;;;;;;;;;21.90;53.90;;;;;;498811;238;1080;-77
2021/06/10 11:15:33;;;;;;;;;;;21.90;54.30;;;;;;498764;238;1046;-77
2021/06/10 11:17:32;;;;;;;;;;;21.70;54.60;;;;;;499291;238;1557;-76
2021/06/10 11:19:32;;;;;;;;;;;21.70;54.70;;;;;;499217;238;2187;-76
2021/06/10 11:21:33;;;;;;;;;;;21.70;54.80;;;;;;499016;238;1206;-77
2021/06/10 11:23:35;;;;;;;;;;;21.70;54.90;;;;;;499097;238;1060;-76
2021/06/10 11:25:37;;;;;;;;;;;21.60;55.00;;;;;;498928;238;1036;-77
2021/06/10 11:27:38;;;;;;;;;;;21.70;54.80;;;;;;498825;238;1702;-76
2021/06/10 11:29:39;;;;;;;;;;;21.60;54.90;;;;;;499075;238;1016;-77
2021/06/10 11:31:40;;;;;;;;;;;21.70;54.90;;;;;;499014;238;1097;-76
2021/06/10 11:33:42;;;;;;;;;;;21.60;54.90;;;;;;498966;238;1025;-77
2021/06/10 11:35:43;;;;;;;;;;;21.70;54.90;;;;;;498842;238;1237;-77
2021/06/10 11:37:44;;;;;;;;;;;21.70;54.90;;;;;;498977;238;1131;-77
2021/06/10 11:39:46;;;;;;;;;;;21.60;54.80;;;;;;498857;238;2137;-76
2021/06/10 11:41:47;;;;;;;;;;;21.70;54.80;;;;;;498921;238;1129;-76
2021/06/10 11:43:54;;;;;;;;;;;21.70;54.80;;;;;;499171;238;1088;-77
2021/06/10 11:45:50;;;;;;;;;;;21.60;54.90;;;;;;498945;238;1448;-76
2021/06/10 11:47:51;;;;;;;;;;;21.50;55.00;;;;;;499095;238;1126;-76
2021/06/10 11:49:52;;;;;;;;;;;21.50;55.00;;;;;;498923;238;1164;-76
2021/06/10 11:51:53;;;;;;;;;;;21.50;55.00;;;;;;499108;238;1186;-77
2021/06/10 11:53:55;;;;;;;;;;;21.50;55.10;;;;;;498904;238;1066;-76
2021/06/10 11:55:57;;;;;;;;;;;21.70;55.00;;;;;;498928;238;1017;-76